sensor_id;sensor_type;location;lat;lon;timestamp;pressure;altitude;pressure_sealevel;temperature;humidity
19600;BME280;9947;57.722;12.012;2023-06-22T00:01:32;101107.34;;;15.77;100.00
19600;BME280;9947;57.722;12.012;2023-06-22T00:04:04;101114.25;;;15.81;100.00
19600;BME280;9947;57.722;12.012;2023-06-22T00:06:34;101111.06;;;15.85;100.00
19600;BME280;9947;57.722;12.012;2023-06-22T00:13:58;101115.66;;;15.85;100.00
19600;BME280;9947;57.722;12.012;2023-06-22T00:16:28;101112.94;;;15.85;100.00
19600;BME280;9947;57.722;12.012;2023-06-22T00:19:01;101117.53;;;15.75;100.00
19600;BME280;9947;57.722;12.012;2023-06-22T00:21:29;101111.38;;;15.72;100.00
19600;BME280;9947;57.722;12.012;2023-06-22T00:23:58;101111.38;;;15.82;100.00
19600;BME280;9947;57.722;12.012;2023-06-22T00:26:25;101123.28;;;15.81;100.00
19600;BME280;9947;57.722;12.012;2023-06-22T00:28:53;101111.81;;;15.78;100.00
19600;BME280;9947;57.722;12.012;2023-06-22T00:31:23;101108.06;;;15.79;100.00
19600;BME280;9947;57.722;12.012;2023-06-22T00:33:52;101111.38;;;15.82;100.00
19600;BME280;9947;57.722;12.012;2023-06-22T00:36:21;101106.34;;;15.78;100.00
19600;BME280;9947;57.722;12.012;2023-06-22T00:39:00;101093.72;;;15.77;100.00
19600;BME280;9947;57.722;12.012;2023-06-22T00:41:31;101100.47;;;15.72;100.00
19600;BME280;9947;57.722;12.012;2023-06-22T00:43:57;101103.91;;;15.75;100.00
19600;BME280;9947;57.722;12.012;2023-06-22T00:46:26;101106.50;;;15.66;100.00
19600;BME280;9947;57.722;12.012;2023-06-22T00:48:56;101111.50;;;15.61;100.00
19600;BME280;9947;57.722;12.012;2023-06-22T00:51:26;101103.13;;;15.53;100.00
19600;BME280;9947;57.722;12.012;2023-06-22T00:53:54;101109.16;;;15.47;100.00
19600;BME280;9947;57.722;12.012;2023-06-22T00:56:24;101113.16;;;15.43;100.00
19600;BME280;9947;57.722;12.012;2023-06-22T00:58:52;101112.72;;;15.38;100.00
19600;BME280;9947;57.722;12.012;2023-06-22T01:01:20;101109.72;;;15.41;100.00
19600;BME280;9947;57.722;12.012;2023-06-22T01:03:49;101112.56;;;15.39;100.00
19600;BME280;9947;57.722;12.012;2023-06-22T01:06:22;101111.56;;;15.40;100.00
19600;BME280;9947;57.722;12.012;2023-06-22T01:09:02;101114.56;;;15.37;100.00
19600;BME280;9947;57.722;12.012;2023-06-22T01:11:35;101109.94;;;15.28;100.00
19600;BME280;9947;57.722;12.012;2023-06-22T01:16:31;101117.53;;;15.25;100.00
19600;BME280;9947;57.722;12.012;2023-06-22T01:19:12;101118.84;;;15.30;100.00
19600;BME280;9947;57.722;12.012;2023-06-22T01:21:45;101110.66;;;15.30;100.00
19600;BME280;9947;57.722;12.012;2023-06-22T01:26:55;101120.69;;;15.30;100.00
19600;BME280;9947;57.722;12.012;2023-06-22T01:29:29;101113.38;;;15.30;100.00
19600;BME280;9947;57.722;12.012;2023-06-22T01:31:59;101119.56;;;15.32;100.00
19600;BME280;9947;57.722;12.012;2023-06-22T01:34:31;101125.47;;;15.37;100.00
19600;BME280;9947;57.722;12.012;2023-06-22T01:39:28;101121.03;;;15.46;100.00
19600;BME280;9947;57.722;12.012;2023-06-22T01:42:00;101123.47;;;15.49;100.00
19600;BME280;9947;57.722;12.012;2023-06-22T01:44:30;101119.75;;;15.50;100.00
19600;BME280;9947;57.722;12.012;2023-06-22T01:47:00;101114.16;;;15.52;100.00
19600;BME280;9947;57.722;12.012;2023-06-22T01:49:31;101125.06;;;15.52;100.00
19600;BME280;9947;57.722;12.012;2023-06-22T01:52:00;101124.50;;;15.48;100.00
19600;BME280;9947;57.722;12.012;2023-06-22T01:54:29;101121.03;;;15.46;100.00
19600;BME280;9947;57.722;12.012;2023-06-22T01:57:00;101124.91;;;15.43;100.00
19600;BME280;9947;57.722;12.012;2023-06-22T01:59:45;101124.91;;;15.43;100.00
19600;BME280;9947;57.722;12.012;2023-06-22T02:02:20;101118.47;;;15.54;100.00
19600;BME280;9947;57.722;12.012;2023-06-22T02:04:57;101122.78;;;15.57;100.00
19600;BME280;9947;57.722;12.012;2023-06-22T02:07:30;101118.69;;;15.62;100.00
19600;BME280;9947;57.722;12.012;2023-06-22T02:10:03;101131.94;;;15.56;100.00
19600;BME280;9947;57.722;12.012;2023-06-22T02:12:33;101137.16;;;15.59;100.00
19600;BME280;9947;57.722;12.012;2023-06-22T02:17:38;101125.25;;;15.60;100.00
19600;BME280;9947;57.722;12.012;2023-06-22T02:22:31;101140.84;;;15.58;100.00
19600;BME280;9947;57.722;12.012;2023-06-22T02:27:29;101139.19;;;15.66;100.00
19600;BME280;9947;57.722;12.012;2023-06-22T02:29:58;101141.19;;;15.64;100.00
19600;BME280;9947;57.722;12.012;2023-06-22T02:32:25;101149.66;;;15.71;100.00
19600;BME280;9947;57.722;12.012;2023-06-22T02:34:57;101141.63;;;15.69;100.00
19600;BME280;9947;57.722;12.012;2023-06-22T02:37:28;101138.63;;;15.63;100.00
19600;BME280;9947;57.722;12.012;2023-06-22T02:39:59;101148.22;;;15.67;100.00
19600;BME280;9947;57.722;12.012;2023-06-22T02:42:29;101148.38;;;15.65;100.00
19600;BME280;9947;57.722;12.012;2023-06-22T02:44:55;101149.97;;;15.68;100.00
19600;BME280;9947;57.722;12.012;2023-06-22T02:47:26;101142.94;;;15.65;100.00
19600;BME280;9947;57.722;12.012;2023-06-22T02:49:56;101153.25;;;15.71;100.00
19600;BME280;9947;57.722;12.012;2023-06-22T02:52:25;101147.50;;;15.65;100.00
19600;BME280;9947;57.722;12.012;2023-06-22T02:54:55;101147.22;;;15.68;100.00
19600;BME280;9947;57.722;12.012;2023-06-22T02:57:23;101146.94;;;15.61;100.00
19600;BME280;9947;57.722;12.012;2023-06-22T02:59:50;101156.94;;;15.61;100.00
19600;BME280;9947;57.722;12.012;2023-06-22T03:02:17;101164.00;;;15.63;100.00
19600;BME280;9947;57.722;12.012;2023-06-22T03:04:48;101148.16;;;15.57;100.00
19600;BME280;9947;57.722;12.012;2023-06-22T03:07:22;101156.34;;;15.57;100.00
19600;BME280;9947;57.722;12.012;2023-06-22T03:09:52;101153.25;;;15.62;100.00
19600;BME280;9947;57.722;12.012;2023-06-22T03:12:21;101157.41;;;15.66;100.00
19600;BME280;9947;57.722;12.012;2023-06-22T03:14:49;101164.25;;;15.60;100.00
19600;BME280;9947;57.722;12.012;2023-06-22T03:17:17;101156.84;;;15.62;100.00
19600;BME280;9947;57.722;12.012;2023-06-22T03:19:45;101159.56;;;15.62;100.00
19600;BME280;9947;57.722;12.012;2023-06-22T03:22:12;101158.69;;;15.62;100.00
19600;BME280;9947;57.722;12.012;2023-06-22T03:24:42;101161.88;;;15.67;100.00
19600;BME280;9947;57.722;12.012;2023-06-22T03:27:11;101163.72;;;15.66;100.00
19600;BME280;9947;57.722;12.012;2023-06-22T03:29:38;101169.47;;;15.73;100.00
19600;BME280;9947;57.722;12.012;2023-06-22T03:32:08;101173.78;;;15.76;100.00
19600;BME280;9947;57.722;12.012;2023-06-22T03:34:36;101171.91;;;15.76;100.00
19600;BME280;9947;57.722;12.012;2023-06-22T03:37:04;101173.91;;;15.74;100.00
19600;BME280;9947;57.722;12.012;2023-06-22T03:39:33;101180.09;;;15.76;100.00
19600;BME280;9947;57.722;12.012;2023-06-22T03:42:06;101180.53;;;15.81;100.00
19600;BME280;9947;57.722;12.012;2023-06-22T03:44:33;101180.22;;;15.75;100.00
19600;BME280;9947;57.722;12.012;2023-06-22T03:47:02;101174.34;;;15.79;100.00
19600;BME280;9947;57.722;12.012;2023-06-22T03:49:29;101184.09;;;15.82;100.00
19600;BME280;9947;57.722;12.012;2023-06-22T03:51:59;101195.16;;;15.80;100.00
19600;BME280;9947;57.722;12.012;2023-06-22T03:54:27;101195.72;;;15.84;100.00
19600;BME280;9947;57.722;12.012;2023-06-22T03:56:55;101188.41;;;15.84;100.00
19600;BME280;9947;57.722;12.012;2023-06-22T03:59:26;101196.72;;;15.83;100.00
19600;BME280;9947;57.722;12.012;2023-06-22T04:01:54;101188.84;;;15.80;100.00
19600;BME280;9947;57.722;12.012;2023-06-22T04:04:21;101190.00;;;15.87;100.00
19600;BME280;9947;57.722;12.012;2023-06-22T04:06:48;101199.66;;;15.91;100.00
19600;BME280;9947;57.722;12.012;2023-06-22T04:09:18;101177.22;;;15.87;100.00
19600;BME280;9947;57.722;12.012;2023-06-22T04:11:49;101198.94;;;15.89;100.00
19600;BME280;9947;57.722;12.012;2023-06-22T04:14:19;101195.06;;;15.91;100.00
19600;BME280;9947;57.722;12.012;2023-06-22T04:16:49;101201.75;;;15.87;100.00
19600;BME280;9947;57.722;12.012;2023-06-22T04:19:18;101206.50;;;15.85;100.00
19600;BME280;9947;57.722;12.012;2023-06-22T04:21:47;101198.19;;;15.87;100.00
19600;BME280;9947;57.722;12.012;2023-06-22T04:24:18;101208.69;;;16.01;100.00
19600;BME280;9947;57.722;12.012;2023-06-22T04:26:46;101214.72;;;15.95;100.00
19600;BME280;9947;57.722;12.012;2023-06-22T04:29:32;101207.69;;;15.92;100.00
19600;BME280;9947;57.722;12.012;2023-06-22T04:32:04;101205.25;;;15.99;100.00
19600;BME280;9947;57.722;12.012;2023-06-22T04:34:33;101206.97;;;16.00;100.00
19600;BME280;9947;57.722;12.012;2023-06-22T04:37:11;101205.81;;;15.93;100.00
19600;BME280;9947;57.722;12.012;2023-06-22T04:39:41;101202.22;;;16.02;100.00
19600;BME280;9947;57.722;12.012;2023-06-22T04:42:12;101206.38;;;15.96;100.00
19600;BME280;9947;57.722;12.012;2023-06-22T04:44:39;101207.84;;;16.00;100.00
19600;BME280;9947;57.722;12.012;2023-06-22T04:47:12;101207.97;;;16.09;100.00
19600;BME280;9947;57.722;12.012;2023-06-22T04:49:40;101207.53;;;16.13;100.00
19600;BME280;9947;57.722;12.012;2023-06-22T04:52:11;101207.53;;;16.13;100.00
19600;BME280;9947;57.722;12.012;2023-06-22T04:54:40;101211.59;;;16.28;100.00
19600;BME280;9947;57.722;12.012;2023-06-22T04:57:14;101208.72;;;16.30;100.00
19600;BME280;9947;57.722;12.012;2023-06-22T04:59:41;101213.03;;;16.52;100.00
19600;BME280;9947;57.722;12.012;2023-06-22T05:02:11;101206.13;;;16.48;100.00
19600;BME280;9947;57.722;12.012;2023-06-22T05:04:39;101205.53;;;16.63;100.00
19600;BME280;9947;57.722;12.012;2023-06-22T05:07:06;101198.19;;;16.64;100.00
19600;BME280;9947;57.722;12.012;2023-06-22T05:09:37;101208.91;;;16.67;100.00
19600;BME280;9947;57.722;12.012;2023-06-22T05:12:08;101207.53;;;16.61;100.00
19600;BME280;9947;57.722;12.012;2023-06-22T05:14:37;101216.59;;;16.62;100.00
19600;BME280;9947;57.722;12.012;2023-06-22T05:17:06;101225.38;;;16.65;100.00
19600;BME280;9947;57.722;12.012;2023-06-22T05:19:44;101220.38;;;16.71;100.00
19600;BME280;9947;57.722;12.012;2023-06-22T05:22:13;101218.16;;;16.64;100.00
19600;BME280;9947;57.722;12.012;2023-06-22T05:24:45;101217.34;;;16.74;100.00
19600;BME280;9947;57.722;12.012;2023-06-22T05:27:19;101214.75;;;16.82;100.00
19600;BME280;9947;57.722;12.012;2023-06-22T05:29:51;101217.91;;;16.87;100.00
19600;BME280;9947;57.722;12.012;2023-06-22T05:32:19;101225.22;;;16.96;100.00
19600;BME280;9947;57.722;12.012;2023-06-22T05:34:55;101219.31;;;17.01;100.00
19600;BME280;9947;57.722;12.012;2023-06-22T05:37:23;101223.03;;;17.09;100.00
19600;BME280;9947;57.722;12.012;2023-06-22T05:39:54;101219.84;;;17.14;100.00
19600;BME280;9947;57.722;12.012;2023-06-22T05:42:29;101221.50;;;17.34;100.00
19600;BME280;9947;57.722;12.012;2023-06-22T05:44:59;101217.75;;;17.45;100.00
19600;BME280;9947;57.722;12.012;2023-06-22T05:47:27;101225.84;;;17.27;100.00
19600;BME280;9947;57.722;12.012;2023-06-22T05:49:57;101220.47;;;17.45;100.00
19600;BME280;9947;57.722;12.012;2023-06-22T05:52:25;101211.44;;;17.62;100.00
19600;BME280;9947;57.722;12.012;2023-06-22T05:54:54;101212.22;;;17.54;100.00
19600;BME280;9947;57.722;12.012;2023-06-22T05:57:21;101216.91;;;17.62;100.00
19600;BME280;9947;57.722;12.012;2023-06-22T05:59:58;101219.66;;;17.72;100.00
19600;BME280;9947;57.722;12.012;2023-06-22T06:02:26;101218.34;;;17.76;100.00
19600;BME280;9947;57.722;12.012;2023-06-22T06:04:58;101226.69;;;18.37;100.00
19600;BME280;9947;57.722;12.012;2023-06-22T06:07:29;101222.94;;;18.38;100.00
19600;BME280;9947;57.722;12.012;2023-06-22T06:10:02;101220.91;;;18.40;100.00
19600;BME280;9947;57.722;12.012;2023-06-22T06:12:31;101218.34;;;18.74;100.00
19600;BME280;9947;57.722;12.012;2023-06-22T06:14:58;101224.97;;;18.72;100.00
19600;BME280;9947;57.722;12.012;2023-06-22T06:17:25;101226.63;;;18.65;100.00
19600;BME280;9947;57.722;12.012;2023-06-22T06:19:53;101221.81;;;19.02;100.00
19600;BME280;9947;57.722;12.012;2023-06-22T06:22:23;101231.56;;;18.79;100.00
19600;BME280;9947;57.722;12.012;2023-06-22T06:24:51;101233.72;;;18.93;100.00
19600;BME280;9947;57.722;12.012;2023-06-22T06:27:19;101233.31;;;19.58;100.00
19600;BME280;9947;57.722;12.012;2023-06-22T06:29:47;101235.78;;;19.51;100.00
19600;BME280;9947;57.722;12.012;2023-06-22T06:32:19;101239.75;;;19.83;100.00
19600;BME280;9947;57.722;12.012;2023-06-22T06:34:48;101236.59;;;19.69;100.00
19600;BME280;9947;57.722;12.012;2023-06-22T06:37:17;101234.66;;;19.54;100.00
19600;BME280;9947;57.722;12.012;2023-06-22T06:39:46;101232.13;;;19.60;100.00
19600;BME280;9947;57.722;12.012;2023-06-22T06:42:16;101238.09;;;19.30;100.00
19600;BME280;9947;57.722;12.012;2023-06-22T06:44:44;101241.03;;;19.36;100.00
19600;BME280;9947;57.722;12.012;2023-06-22T06:47:11;101238.28;;;20.05;100.00
19600;BME280;9947;57.722;12.012;2023-06-22T06:49:40;101243.25;;;20.84;100.00
19600;BME280;9947;57.722;12.012;2023-06-22T06:52:10;101236.34;;;20.96;100.00
19600;BME280;9947;57.722;12.012;2023-06-22T06:54:43;101238.41;;;20.78;100.00
19600;BME280;9947;57.722;12.012;2023-06-22T06:57:14;101235.97;;;21.07;100.00
19600;BME280;9947;57.722;12.012;2023-06-22T06:59:41;101247.34;;;20.72;100.00
19600;BME280;9947;57.722;12.012;2023-06-22T07:04:40;101242.19;;;21.09;100.00
19600;BME280;9947;57.722;12.012;2023-06-22T07:07:07;101248.72;;;20.68;100.00
19600;BME280;9947;57.722;12.012;2023-06-22T07:09:35;101238.41;;;20.94;100.00
19600;BME280;9947;57.722;12.012;2023-06-22T07:12:04;101242.53;;;20.90;100.00
19600;BME280;9947;57.722;12.012;2023-06-22T07:14:34;101241.81;;;21.29;100.00
19600;BME280;9947;57.722;12.012;2023-06-22T07:17:03;101250.78;;;20.90;100.00
19600;BME280;9947;57.722;12.012;2023-06-22T07:19:37;101241.16;;;21.35;100.00
19600;BME280;9947;57.722;12.012;2023-06-22T07:22:08;101246.31;;;20.89;100.00
19600;BME280;9947;57.722;12.012;2023-06-22T07:24:36;101250.41;;;21.42;100.00
19600;BME280;9947;57.722;12.012;2023-06-22T07:27:05;101242.22;;;20.85;100.00
19600;BME280;9947;57.722;12.012;2023-06-22T07:29:35;101247.31;;;20.47;100.00
19600;BME280;9947;57.722;12.012;2023-06-22T07:32:06;101254.03;;;20.77;100.00
19600;BME280;9947;57.722;12.012;2023-06-22T07:34:34;101253.34;;;20.51;100.00
19600;BME280;9947;57.722;12.012;2023-06-22T07:37:07;101247.16;;;19.90;100.00
19600;BME280;9947;57.722;12.012;2023-06-22T07:39:37;101250.47;;;20.10;100.00
19600;BME280;9947;57.722;12.012;2023-06-22T07:42:05;101249.22;;;19.96;100.00
19600;BME280;9947;57.722;12.012;2023-06-22T07:44:35;101251.94;;;19.88;100.00
19600;BME280;9947;57.722;12.012;2023-06-22T07:47:04;101253.56;;;20.07;100.00
19600;BME280;9947;57.722;12.012;2023-06-22T07:49:33;101251.91;;;20.39;100.00
19600;BME280;9947;57.722;12.012;2023-06-22T07:52:06;101244.97;;;20.85;100.00
19600;BME280;9947;57.722;12.012;2023-06-22T07:54:34;101246.47;;;21.28;100.00
19600;BME280;9947;57.722;12.012;2023-06-22T07:57:03;101241.66;;;21.30;100.00
19600;BME280;9947;57.722;12.012;2023-06-22T07:59:32;101246.81;;;21.41;100.00
19600;BME280;9947;57.722;12.012;2023-06-22T08:02:03;101246.47;;;21.04;100.00
19600;BME280;9947;57.722;12.012;2023-06-22T08:04:31;101254.41;;;20.90;100.00
19600;BME280;9947;57.722;12.012;2023-06-22T08:07:00;101258.50;;;20.70;100.00
19600;BME280;9947;57.722;12.012;2023-06-22T08:09:32;101256.78;;;21.18;100.00
19600;BME280;9947;57.722;12.012;2023-06-22T08:12:02;101259.00;;;21.06;100.00
19600;BME280;9947;57.722;12.012;2023-06-22T08:14:30;101257.31;;;21.13;100.00
19600;BME280;9947;57.722;12.012;2023-06-22T08:17:05;101257.44;;;20.55;100.00
19600;BME280;9947;57.722;12.012;2023-06-22T08:19:34;101270.19;;;20.88;100.00
19600;BME280;9947;57.722;12.012;2023-06-22T08:22:02;101263.84;;;20.88;100.00
19600;BME280;9947;57.722;12.012;2023-06-22T08:24:32;101260.06;;;20.89;100.00
19600;BME280;9947;57.722;12.012;2023-06-22T08:27:01;101263.16;;;20.86;100.00
19600;BME280;9947;57.722;12.012;2023-06-22T08:29:47;101267.09;;;20.75;100.00
19600;BME280;9947;57.722;12.012;2023-06-22T08:32:18;101268.81;;;21.01;100.00
19600;BME280;9947;57.722;12.012;2023-06-22T08:34:47;101276.38;;;20.90;100.00
19600;BME280;9947;57.722;12.012;2023-06-22T08:37:18;101275.50;;;20.74;100.00
19600;BME280;9947;57.722;12.012;2023-06-22T08:39:47;101281.38;;;20.87;100.00
19600;BME280;9947;57.722;12.012;2023-06-22T08:42:14;101273.78;;;20.81;100.00
19600;BME280;9947;57.722;12.012;2023-06-22T08:44:43;101279.28;;;21.21;100.00
19600;BME280;9947;57.722;12.012;2023-06-22T08:47:14;101279.63;;;21.02;100.00
19600;BME280;9947;57.722;12.012;2023-06-22T08:49:50;101288.22;;;21.07;100.00
19600;BME280;9947;57.722;12.012;2023-06-22T08:52:18;101288.91;;;20.93;100.00
19600;BME280;9947;57.722;12.012;2023-06-22T08:54:46;101283.25;;;20.94;100.00
19600;BME280;9947;57.722;12.012;2023-06-22T08:57:14;101290.63;;;21.02;100.00
19600;BME280;9947;57.722;12.012;2023-06-22T08:59:42;101286.00;;;21.19;100.00
19600;BME280;9947;57.722;12.012;2023-06-22T09:02:11;101294.41;;;21.01;100.00
19600;BME280;9947;57.722;12.012;2023-06-22T09:04:38;101282.75;;;20.91;100.00
19600;BME280;9947;57.722;12.012;2023-06-22T09:07:09;101288.59;;;20.88;100.00
19600;BME280;9947;57.722;12.012;2023-06-22T09:09:38;101275.34;;;21.24;100.00
19600;BME280;9947;57.722;12.012;2023-06-22T09:12:07;101285.75;;;21.69;100.00
19600;BME280;9947;57.722;12.012;2023-06-22T09:14:36;101284.34;;;21.73;100.00
19600;BME280;9947;57.722;12.012;2023-06-22T09:17:04;101280.13;;;22.02;100.00
19600;BME280;9947;57.722;12.012;2023-06-22T09:19:32;101284.09;;;21.99;100.00
19600;BME280;9947;57.722;12.012;2023-06-22T09:22:00;101278.94;;;22.35;100.00
19600;BME280;9947;57.722;12.012;2023-06-22T09:24:50;101284.13;;;21.83;100.00
19600;BME280;9947;57.722;12.012;2023-06-22T09:27:18;101279.06;;;21.64;100.00
19600;BME280;9947;57.722;12.012;2023-06-22T09:29:47;101271.22;;;21.92;100.00
19600;BME280;9947;57.722;12.012;2023-06-22T09:32:15;101275.75;;;21.76;100.00
19600;BME280;9947;57.722;12.012;2023-06-22T09:34:42;101274.78;;;22.00;100.00
19600;BME280;9947;57.722;12.012;2023-06-22T09:37:13;101271.00;;;22.01;100.00
19600;BME280;9947;57.722;12.012;2023-06-22T09:39:42;101270.06;;;21.78;100.00
19600;BME280;9947;57.722;12.012;2023-06-22T09:42:18;101270.81;;;22.11;100.00
19600;BME280;9947;57.722;12.012;2023-06-22T09:44:47;101264.53;;;21.86;100.00
19600;BME280;9947;57.722;12.012;2023-06-22T09:47:17;101280.47;;;22.07;100.00
19600;BME280;9947;57.722;12.012;2023-06-22T09:49:47;101270.28;;;21.68;100.00
19600;BME280;9947;57.722;12.012;2023-06-22T09:52:15;101272.16;;;21.60;100.00
19600;BME280;9947;57.722;12.012;2023-06-22T09:54:44;101274.84;;;21.37;100.00
19600;BME280;9947;57.722;12.012;2023-06-22T09:57:11;101279.56;;;21.67;100.00
19600;BME280;9947;57.722;12.012;2023-06-22T09:59:51;101275.34;;;21.96;100.00
19600;BME280;9947;57.722;12.012;2023-06-22T10:02:19;101276.91;;;21.90;100.00
19600;BME280;9947;57.722;12.012;2023-06-22T10:04:47;101275.16;;;21.97;100.00
19600;BME280;9947;57.722;12.012;2023-06-22T10:07:15;101285.59;;;22.10;100.00
19600;BME280;9947;57.722;12.012;2023-06-22T10:09:42;101277.22;;;22.34;100.00
19600;BME280;9947;57.722;12.012;2023-06-22T10:12:15;101276.66;;;22.08;100.00
19600;BME280;9947;57.722;12.012;2023-06-22T10:14:45;101274.94;;;22.07;100.00
19600;BME280;9947;57.722;12.012;2023-06-22T10:17:12;101272.88;;;22.01;100.00
19600;BME280;9947;57.722;12.012;2023-06-22T10:19:41;101271.00;;;22.01;100.00
19600;BME280;9947;57.722;12.012;2023-06-22T10:22:13;101270.53;;;22.29;100.00
19600;BME280;9947;57.722;12.012;2023-06-22T10:24:41;101270.78;;;21.72;100.00
19600;BME280;9947;57.722;12.012;2023-06-22T10:27:10;101265.34;;;21.95;100.00
19600;BME280;9947;57.722;12.012;2023-06-22T10:29:37;101273.84;;;21.77;100.00
19600;BME280;9947;57.722;12.012;2023-06-22T10:32:13;101272.59;;;22.58;100.00
19600;BME280;9947;57.722;12.012;2023-06-22T10:34:43;101281.25;;;23.00;100.00
19600;BME280;9947;57.722;12.012;2023-06-22T10:37:13;101276.84;;;22.37;100.00
19600;BME280;9947;57.722;12.012;2023-06-22T10:39:44;101276.66;;;22.70;100.00
19600;BME280;9947;57.722;12.012;2023-06-22T10:42:14;101271.59;;;21.89;100.00
19600;BME280;9947;57.722;12.012;2023-06-22T10:44:44;101272.09;;;21.84;100.00
19600;BME280;9947;57.722;12.012;2023-06-22T10:47:13;101269.50;;;21.91;100.00
19600;BME280;9947;57.722;12.012;2023-06-22T10:49:40;101280.47;;;22.07;100.00
19600;BME280;9947;57.722;12.012;2023-06-22T10:52:11;101278.09;;;21.96;100.00
19600;BME280;9947;57.722;12.012;2023-06-22T10:54:39;101276.97;;;22.21;100.00
19600;BME280;9947;57.722;12.012;2023-06-22T10:57:07;101278.09;;;21.96;100.00
19600;BME280;9947;57.722;12.012;2023-06-22T10:59:34;101277.03;;;22.05;100.00
19600;BME280;9947;57.722;12.012;2023-06-22T11:02:01;101276.31;;;21.64;100.00
19600;BME280;9947;57.722;12.012;2023-06-22T11:04:29;101272.63;;;21.79;100.00
19600;BME280;9947;57.722;12.012;2023-06-22T11:06:56;101284.31;;;21.81;100.00
19600;BME280;9947;57.722;12.012;2023-06-22T11:09:27;101281.63;;;22.21;100.00
19600;BME280;9947;57.722;12.012;2023-06-22T11:11:55;101271.84;;;22.10;100.00
19600;BME280;9947;57.722;12.012;2023-06-22T11:14:24;101278.53;;;21.68;100.00
19600;BME280;9947;57.722;12.012;2023-06-22T11:16:51;101279.72;;;21.74;100.00
19600;BME280;9947;57.722;12.012;2023-06-22T11:19:19;101274.75;;;22.17;100.00
19600;BME280;9947;57.722;12.012;2023-06-22T11:21:48;101276.22;;;22.27;100.00
19600;BME280;9947;57.722;12.012;2023-06-22T11:24:19;101274.56;;;22.18;100.00
19600;BME280;9947;57.722;12.012;2023-06-22T11:26:46;101271.84;;;22.10;100.00
19600;BME280;9947;57.722;12.012;2023-06-22T11:29:13;101275.78;;;21.68;100.00
19600;BME280;9947;57.722;12.012;2023-06-22T11:31:40;101271.16;;;22.08;100.00
19600;BME280;9947;57.722;12.012;2023-06-22T11:34:09;101275.72;;;22.55;100.00
19600;BME280;9947;57.722;12.012;2023-06-22T11:36:38;101266.38;;;22.33;100.00
19600;BME280;9947;57.722;12.012;2023-06-22T11:39:08;101269.63;;;22.05;100.00
19600;BME280;9947;57.722;12.012;2023-06-22T11:41:37;101263.06;;;21.59;100.00
19600;BME280;9947;57.722;12.012;2023-06-22T11:44:06;101263.41;;;22.11;100.00
19600;BME280;9947;57.722;12.012;2023-06-22T11:46:34;101255.06;;;21.89;100.00
19600;BME280;9947;57.722;12.012;2023-06-22T11:49:01;101270.00;;;21.94;100.00
19600;BME280;9947;57.722;12.012;2023-06-22T11:51:30;101271.50;;;21.58;100.00
19600;BME280;9947;57.722;12.012;2023-06-22T11:53:57;101274.47;;;21.15;100.00
19600;BME280;9947;57.722;12.012;2023-06-22T11:56:34;101270.19;;;21.13;100.00
19600;BME280;9947;57.722;12.012;2023-06-22T11:59:03;101274.66;;;21.38;100.00
19600;BME280;9947;57.722;12.012;2023-06-22T12:01:30;101265.81;;;21.59;100.00
19600;BME280;9947;57.722;12.012;2023-06-22T12:03:58;101270.56;;;21.81;100.00
19600;BME280;9947;57.722;12.012;2023-06-22T12:06:25;101280.63;;;22.13;100.00
19600;BME280;9947;57.722;12.012;2023-06-22T12:08:54;101283.22;;;22.07;100.00
19600;BME280;9947;57.722;12.012;2023-06-22T12:11:22;101277.78;;;21.82;100.00
19600;BME280;9947;57.722;12.012;2023-06-22T12:13:50;101278.50;;;22.24;100.00
19600;BME280;9947;57.722;12.012;2023-06-22T12:16:20;101291.94;;;22.50;100.00
19600;BME280;9947;57.722;12.012;2023-06-22T12:18:47;101279.66;;;22.29;100.00
19600;BME280;9947;57.722;12.012;2023-06-22T12:21:14;101284.97;;;22.39;100.00
19600;BME280;9947;57.722;12.012;2023-06-22T12:23:41;101278.22;;;22.41;100.00
19600;BME280;9947;57.722;12.012;2023-06-22T12:26:08;101282.41;;;22.29;100.00
19600;BME280;9947;57.722;12.012;2023-06-22T12:28:36;101261.81;;;22.48;100.00
19600;BME280;9947;57.722;12.012;2023-06-22T12:31:07;101270.66;;;22.66;100.00
19600;BME280;9947;57.722;12.012;2023-06-22T12:33:34;101258.00;;;22.26;100.00
19600;BME280;9947;57.722;12.012;2023-06-22T12:36:01;101267.72;;;22.37;100.00
19600;BME280;9947;57.722;12.012;2023-06-22T12:38:30;101252.69;;;22.48;100.00
19600;BME280;9947;57.722;12.012;2023-06-22T12:40:57;101262.56;;;22.03;100.00
19600;BME280;9947;57.722;12.012;2023-06-22T12:43:24;101256.66;;;21.75;100.00
19600;BME280;9947;57.722;12.012;2023-06-22T12:45:51;101262.41;;;21.49;100.00
19600;BME280;9947;57.722;12.012;2023-06-22T12:48:21;101257.16;;;21.78;100.00
19600;BME280;9947;57.722;12.012;2023-06-22T12:50:50;101252.88;;;21.76;100.00
19600;BME280;9947;57.722;12.012;2023-06-22T12:53:18;101255.53;;;21.53;100.00
19600;BME280;9947;57.722;12.012;2023-06-22T12:55:45;101253.75;;;21.68;100.00
19600;BME280;9947;57.722;12.012;2023-06-22T12:58:12;101249.25;;;21.75;100.00
19600;BME280;9947;57.722;12.012;2023-06-22T13:00:39;101245.69;;;21.67;100.00
19600;BME280;9947;57.722;12.012;2023-06-22T13:03:08;101244.84;;;21.66;100.00
19600;BME280;9947;57.722;12.012;2023-06-22T13:05:43;101251.06;;;21.60;100.00
19600;BME280;9947;57.722;12.012;2023-06-22T13:08:10;101246.69;;;21.74;100.00
19600;BME280;9947;57.722;12.012;2023-06-22T13:10:40;101255.94;;;21.89;100.00
19600;BME280;9947;57.722;12.012;2023-06-22T13:13:07;101248.31;;;21.60;100.00
19600;BME280;9947;57.722;12.012;2023-06-22T13:15:35;101252.91;;;21.60;100.00